Time;durP1;ratioP1;P1;durP2;ratioP2;P2;SDS_P1;SDS_P2;PMS_P1;PMS_P2;Temp;Humidity;BMP_temperature;BMP_pressure;BME280_temperature;BME280_humidity;BME280_pressure;Samples;Min_cycle;Max_cycle;Signal;HPM_P1;HPM_P2
2022/05/20 00:00:00;;;;;;;3.17;1.85;;;;;;;16.25;40.41;100505.59;2014662;88;29329;-67
2022/05/20 00:03:03;;;;;;;5.10;1.92;;;;;;;16.25;40.45;100503.74;2014436;88;27713;-67
2022/05/20 00:06:07;;;;;;;5.33;1.82;;;;;;;16.26;40.27;100507.33;2014596;88;28666;-68
2022/05/20 00:09:10;;;;;;;4.70;1.60;;;;;;;16.26;40.34;100501.92;2014593;88;31098;-67
2022/05/20 00:12:13;;;;;;;2.45;1.17;;;;;;;16.26;40.33;100505.98;2017950;86;33079;-67
2022/05/20 00:15:21;;;;;;;4.45;1.62;;;;;;;16.26;40.32;100508.68;2063778;86;29436;-67
2022/05/20 00:18:23;;;;;;;4.45;1.52;;;;;;;16.23;40.23;100506.19;2064165;86;27604;-67
2022/05/20 00:21:26;;;;;;;6.37;1.47;;;;;;;16.24;40.22;100514.17;2063967;86;28649;-68
2022/05/20 00:24:29;;;;;;;10.58;1.52;;;;;;;16.22;40.24;100528.78;2086012;84;30914;-68
2022/05/20 00:27:32;;;;;;;4.28;1.80;;;;;;;16.20;40.34;100534.78;2040614;86;33053;-66
2022/05/20 00:30:35;;;;;;;10.25;1.92;;;;;;;16.16;40.52;100528.73;2063752;86;29363;-67
2022/05/20 00:33:38;;;;;;;6.95;1.60;;;;;;;16.10;40.60;100519.69;2040725;86;27843;-67
2022/05/20 00:36:40;;;;;;;7.33;1.65;;;;;;;16.05;40.67;100520.02;2039789;86;28657;-67
2022/05/20 00:39:43;;;;;;;5.28;1.20;;;;;;;15.99;40.64;100520.92;2085559;84;31018;-70
2022/05/20 00:42:46;;;;;;;4.72;1.52;;;;;;;15.90;40.90;100518.37;2063262;86;32992;-67
2022/05/20 00:45:49;;;;;;;7.15;1.47;;;;;;;15.83;41.05;100517.89;2063321;86;29337;-69
2022/05/20 00:49:08;;;;;;;3.47;1.75;;;;;;;15.75;41.07;100517.06;2063088;86;28032;-68
2022/05/20 00:52:13;;;;;;;4.87;1.85;;;;;;;15.68;41.14;100518.44;2016258;87;30249;-67
2022/05/20 00:55:20;;;;;;;4.97;1.77;;;;;;;15.60;41.43;100523.51;2041200;87;31829;-67
2022/05/20 00:58:24;;;;;;;5.80;1.70;;;;;;;15.50;41.60;100524.11;2064821;85;32843;-67
2022/05/20 01:01:28;;;;;;;2.80;1.53;;;;;;;15.43;41.72;100523.27;2020631;86;29336;-67
2022/05/20 01:04:31;;;;;;;2.45;1.72;;;;;;;15.33;41.90;100521.66;2065410;85;27902;-67
2022/05/20 01:07:37;;;;;;;2.52;1.47;;;;;;;15.24;41.99;100521.78;2019999;87;28721;-68
2022/05/20 01:10:40;;;;;;;5.62;1.77;;;;;;;15.16;42.18;100522.29;2042048;87;31025;-68
2022/05/20 01:13:44;;;;;;;5.42;2.00;;;;;;;15.08;42.53;100518.36;2066028;85;34304;-67
2022/05/20 01:16:47;;;;;;;3.27;1.60;;;;;;;15.00;42.65;100520.20;2043441;87;30828;-67
2022/05/20 01:19:55;;;;;;;4.58;2.22;;;;;;;14.94;42.68;100520.62;2043367;87;27831;-67
2022/05/20 01:23:02;;;;;;;4.50;1.50;;;;;;;14.85;42.82;100526.98;2022837;87;28539;-67
2022/05/20 01:26:06;;;;;;;5.10;1.67;;;;;;;14.81;43.02;100521.89;2001047;87;31034;-67
2022/05/20 01:29:12;;;;;;;7.07;1.47;;;;;;;14.74;43.27;100528.16;2021618;87;33050;-66
2022/05/20 01:32:15;;;;;;;2.12;1.60;;;;;;;14.66;43.46;100531.31;2021593;87;29082;-66
2022/05/20 01:35:29;;;;;;;3.47;1.70;;;;;;;14.62;43.62;100532.95;2000233;87;27768;-66
2022/05/20 01:38:32;;;;;;;5.17;1.80;;;;;;;14.57;43.83;100531.41;2021406;87;28939;-67
2022/05/20 01:42:07;;;;;;;6.87;2.15;;;;;;;14.50;44.00;100530.05;2021686;87;31034;-66
2022/05/20 01:45:16;;;;;;;3.72;1.57;;;;;;;14.45;44.23;100533.53;2021419;87;32977;-67
2022/05/20 01:48:30;;;;;;;4.40;1.87;;;;;;;14.40;44.60;100532.94;2021570;87;29455;-69
2022/05/20 01:51:54;;;;;;;6.47;1.67;;;;;;;14.36;44.97;100527.34;2021942;87;27761;-67
2022/05/20 01:55:13;;;;;;;4.17;1.62;;;;;;;14.30;44.99;100533.98;2060545;86;29273;-67
2022/05/20 01:58:28;;;;;;;4.83;1.57;;;;;;;14.27;45.25;100532.82;2065261;86;31053;-67
2022/05/20 02:01:38;;;;;;;7.08;1.80;;;;;;;14.24;45.69;100534.34;2064420;85;32980;-67
2022/05/20 02:04:50;;;;;;;6.00;2.10;;;;;;;14.23;45.61;100539.38;2044887;86;30704;-67
2022/05/20 02:07:58;;;;;;;6.42;2.02;;;;;;;14.24;45.99;100537.93;2064788;85;27705;-66
2022/05/20 02:11:08;;;;;;;6.60;1.70;;;;;;;14.25;45.97;100544.17;2064749;85;28644;-67
2022/05/20 02:14:30;;;;;;;3.83;2.05;;;;;;;14.25;46.14;100542.36;2064898;85;31013;-66
2022/05/20 02:17:38;;;;;;;6.95;1.60;;;;;;;14.27;46.31;100544.95;2065123;85;32961;-67
2022/05/20 02:20:49;;;;;;;5.28;1.70;;;;;;;14.31;46.54;100553.73;2065132;85;29338;-67
2022/05/20 02:23:57;;;;;;;4.12;1.95;;;;;;;14.33;46.78;100558.06;2065262;85;27815;-67
2022/05/20 02:27:05;;;;;;;7.85;1.80;;;;;;;14.38;46.90;100559.11;2064680;86;28500;-67
2022/05/20 02:30:20;;;;;;;10.68;1.87;;;;;;;14.41;47.13;100553.05;2061742;86;31035;-68
2022/05/20 02:33:25;;;;;;;6.97;1.92;;;;;;;14.44;47.33;100551.52;2064485;86;33006;-66
2022/05/20 02:36:33;;;;;;;4.67;1.77;;;;;;;14.49;47.36;100548.52;2061952;86;29345;-67
2022/05/20 02:39:35;;;;;;;6.00;2.12;;;;;;;14.52;47.59;100546.14;2043160;86;27671;-66
2022/05/20 02:42:38;;;;;;;4.67;2.02;;;;;;;14.56;47.66;100543.64;2061834;86;28507;-67
2022/05/20 02:45:42;;;;;;;6.30;2.33;;;;;;;14.60;47.92;100554.59;2064859;86;31186;-66
2022/05/20 02:48:44;;;;;;;9.80;1.70;;;;;;;14.59;48.02;100540.73;2062067;86;33587;-66
2022/05/20 02:51:46;;;;;;;6.05;2.67;;;;;;;14.65;48.14;100539.01;2042235;86;29595;-66
2022/05/20 02:54:48;;;;;;;4.85;2.05;;;;;;;14.68;48.26;100537.50;2059272;86;27687;-67
2022/05/20 02:57:51;;;;;;;7.58;2.33;;;;;;;14.71;48.36;100545.41;2064336;86;28686;-67
2022/05/20 03:04:13;;;;;;;7.67;1.87;;;;;;;14.77;48.70;100537.41;2067545;86;32865;-67
2022/05/20 03:07:16;;;;;;;7.92;2.35;;;;;;;14.81;48.84;100545.66;2069060;84;29484;-66
2022/05/20 03:10:18;;;;;;;3.42;1.80;;;;;;;14.83;48.61;100545.09;2092153;84;27788;-66
2022/05/20 03:13:21;;;;;;;4.17;2.33;;;;;;;14.88;48.60;100559.16;2067639;85;28637;-68
2022/05/20 03:16:23;;;;;;;11.97;2.45;;;;;;;14.91;48.76;100551.34;2067543;86;31035;-67
2022/05/20 03:19:31;;;;;;;8.95;2.55;;;;;;;14.95;48.66;100558.28;2067157;86;33046;-67
2022/05/20 03:22:35;;;;;;;4.67;1.98;;;;;;;14.99;48.92;100558.94;2091863;84;29137;-69
2022/05/20 03:25:38;;;;;;;5.15;2.42;;;;;;;15.03;48.94;100566.77;2069040;84;27753;-68
2022/05/20 03:28:41;;;;;;;3.27;2.17;;;;;;;15.06;48.91;100568.89;2046092;86;28650;-68
2022/05/20 03:31:44;;;;;;;8.58;2.58;;;;;;;15.11;48.88;100574.36;2067199;86;31031;-69
2022/05/20 03:34:46;;;;;;;5.67;2.45;;;;;;;15.18;48.85;100566.73;2067228;86;32939;-69
2022/05/20 03:37:48;;;;;;;8.55;2.50;;;;;;;15.26;49.01;100566.23;2068221;85;30753;-69
2022/05/20 03:40:51;;;;;;;6.00;3.12;;;;;;;15.34;49.04;100567.94;2068780;84;27847;-70
2022/05/20 03:43:53;;;;;;;11.33;3.00;;;;;;;15.42;49.38;100568.31;2067391;86;28659;-69
2022/05/20 03:46:56;;;;;;;5.33;2.47;;;;;;;15.50;49.47;100567.81;2067097;86;31033;-69
2022/05/20 03:50:00;;;;;;;9.33;2.85;;;;;;;15.59;49.59;100564.98;2092139;84;34332;-69
2022/05/20 03:53:03;;;;;;;6.55;2.80;;;;;;;15.68;49.55;100571.11;2067361;86;29533;-69
2022/05/20 03:56:08;;;;;;;10.60;2.65;;;;;;;15.78;49.38;100580.34;2065394;86;27713;-69
2022/05/20 03:59:11;;;;;;;8.00;3.12;;;;;;;15.86;49.75;100574.45;2091048;84;28754;-69
2022/05/20 04:02:14;;;;;;;5.67;2.30;;;;;;;15.93;49.60;100577.61;2067563;85;31708;-69
2022/05/20 04:05:16;;;;;;;7.60;2.72;;;;;;;16.05;49.98;100579.97;2064967;86;33711;-70
2022/05/20 04:08:19;;;;;;;6.03;2.60;;;;;;;16.17;49.90;100584.52;2045573;86;29319;-69
2022/05/20 04:11:23;;;;;;;5.05;2.35;;;;;;;16.17;49.90;100584.52;2065090;86;27574;-69
2022/05/20 04:14:28;;;;;;;8.25;2.80;;;;;;;16.25;49.97;100585.34;2064611;86;29233;-68
2022/05/20 04:17:30;;;;;;;8.38;2.77;;;;;;;16.33;50.11;100588.37;2090841;84;31057;-68
2022/05/20 04:20:33;;;;;;;3.80;2.37;;;;;;;16.44;50.24;100598.44;2045362;86;33022;-69
2022/05/20 04:23:35;;;;;;;6.65;3.05;;;;;;;16.64;49.75;100594.83;2065063;86;29333;-69
2022/05/20 04:26:38;;;;;;;6.45;2.90;;;;;;;16.64;49.75;100594.83;2045436;86;27665;-69
2022/05/20 04:29:41;;;;;;;3.58;2.65;;;;;;;16.74;50.12;100607.22;2065074;86;28245;-69
2022/05/20 04:32:44;;;;;;;11.73;2.98;;;;;;;16.83;50.20;100615.55;2064962;86;31028;-69
2022/05/20 04:35:46;;;;;;;6.72;2.98;;;;;;;16.91;50.27;100620.89;2064644;86;33017;-69
2022/05/20 04:38:48;;;;;;;8.55;2.95;;;;;;;16.99;50.29;100619.91;2065111;86;29319;-69
2022/05/20 04:48:32;;;;;;;9.15;2.87;;;;;;;17.24;50.86;100624.88;2086971;84;31044;-68
2022/05/20 04:51:35;;;;;;;12.45;3.35;;;;;;;17.34;51.14;100631.38;2065017;86;33006;-68
2022/05/20 04:54:49;;;;;;;6.47;2.60;;;;;;;17.43;51.21;100645.59;2065220;86;29324;-68
2022/05/20 04:57:53;;;;;;;5.97;2.65;;;;;;;17.52;51.42;100637.78;2067668;86;33607;-68
2022/05/20 05:00:59;;;;;;;6.83;2.77;;;;;;;17.64;51.39;100645.00;2067102;86;28671;-69
2022/05/20 05:04:00;;;;;;;5.92;2.20;;;;;;;17.77;51.48;100644.96;2091658;84;31132;-69
2022/05/20 05:07:04;;;;;;;10.35;3.05;;;;;;;17.91;51.22;100643.91;2067046;86;32986;-68
2022/05/20 05:10:09;;;;;;;10.90;2.37;;;;;;;18.07;51.49;100642.30;2066957;86;29333;-68
2022/05/20 05:13:14;;;;;;;10.82;2.62;;;;;;;18.24;51.22;100651.00;2066825;86;27643;-68
2022/05/20 05:16:18;;;;;;;11.60;3.37;;;;;;;18.41;51.17;100652.40;2045072;86;28685;-69
2022/05/20 05:19:20;;;;;;;7.60;2.87;;;;;;;18.55;50.94;100652.19;2067251;85;33193;-70
2022/05/20 05:22:23;;;;;;;18.60;3.00;;;;;;;18.69;50.71;100644.34;2066169;86;33128;-71
2022/05/20 05:25:31;;;;;;;7.00;2.55;;;;;;;18.87;50.24;100648.80;2066987;86;29333;-69
2022/05/20 05:28:34;;;;;;;10.05;2.85;;;;;;;19.03;50.04;100652.56;2066916;86;27761;-69
2022/05/20 05:31:36;;;;;;;8.90;3.05;;;;;;;19.20;49.98;100648.98;2045206;86;28626;-70
2022/05/20 05:34:40;;;;;;;6.33;2.50;;;;;;;19.34;49.67;100650.08;2067409;86;31029;-70
2022/05/20 05:37:43;;;;;;;8.85;2.92;;;;;;;19.47;49.49;100644.52;2067556;86;32967;-71
2022/05/20 05:40:51;;;;;;;11.12;2.92;;;;;;;19.61;49.23;100644.72;2067876;86;29383;-71
2022/05/20 05:43:54;;;;;;;14.98;2.87;;;;;;;19.80;49.14;100646.80;2067444;86;27571;-71
2022/05/20 05:46:57;;;;;;;10.90;2.92;;;;;;;20.04;48.88;100645.75;2067593;86;28643;-71
2022/05/20 05:50:00;;;;;;;6.25;2.33;;;;;;;20.26;48.64;100646.18;2067674;86;31011;-70
2022/05/20 05:53:14;;;;;;;7.97;2.92;;;;;;;20.56;48.68;100651.34;2067739;86;32966;-70
2022/05/20 05:56:17;;;;;;;5.08;2.37;;;;;;;21.53;48.28;100650.59;2067379;86;29336;-70
2022/05/20 05:59:21;;;;;;;7.58;2.35;;;;;;;22.56;47.25;100643.49;2067514;85;27542;-70
2022/05/20 06:02:25;;;;;;;6.28;2.30;;;;;;;23.15;46.44;100644.20;2067498;86;28675;-71
2022/05/20 06:05:28;;;;;;;8.27;2.47;;;;;;;24.29;45.93;100635.24;2067866;86;31092;-70
2022/05/20 06:08:31;;;;;;;8.50;1.87;;;;;;;25.59;44.74;100639.98;2067935;86;32959;-70
2022/05/20 06:11:35;;;;;;;10.00;2.52;;;;;;;26.84;43.33;100639.95;2067583;86;29387;-70
2022/05/20 06:14:39;;;;;;;12.27;2.67;;;;;;;28.00;42.00;100627.61;2068006;86;27798;-70
2022/05/20 06:17:41;;;;;;;8.55;2.62;;;;;;;29.12;40.49;100624.73;2067732;86;28646;-71
2022/05/20 06:20:45;;;;;;;7.15;2.72;;;;;;;30.11;39.34;100623.92;2067227;86;31075;-69
2022/05/20 06:23:47;;;;;;;13.28;2.90;;;;;;;31.07;38.32;100620.66;2068038;86;32868;-70
2022/05/20 06:26:49;;;;;;;3.58;2.70;;;;;;;31.90;36.57;100621.69;2067907;86;29334;-69
2022/05/20 06:29:52;;;;;;;4.17;2.20;;;;;;;32.70;35.73;100616.72;2067803;86;27778;-70
2022/05/20 06:32:55;;;;;;;;;;;;;;;33.46;34.47;100627.48;2069780;86;28648;-70
2022/05/20 06:42:38;;;;;;;5.55;2.83;;;;;;;35.07;31.73;100630.49;2067365;86;29312;-68
2022/05/20 06:45:41;;;;;;;8.78;2.30;;;;;;;35.40;30.71;100637.61;2092036;84;27611;-69
2022/05/20 06:48:50;;;;;;;4.08;2.17;;;;;;;35.76;30.19;100625.25;2061325;85;30028;-69
2022/05/20 06:51:54;;;;;;;4.53;2.00;;;;;;;35.87;29.73;100618.02;2049037;85;32359;-70
2022/05/20 06:54:56;;;;;;;5.20;2.85;;;;;;;36.11;29.23;100626.50;2061261;86;33216;-70
2022/05/20 06:57:58;;;;;;;2.50;2.30;;;;;;;36.37;29.02;100621.04;2060809;86;29313;-70
2022/05/20 07:01:00;;;;;;;8.38;2.80;;;;;;;36.69;28.18;100635.21;2061301;86;27940;-70
2022/05/20 07:04:03;;;;;;;4.67;2.33;;;;;;;36.83;27.75;100629.68;2061599;86;28623;-69
2022/05/20 07:07:08;;;;;;;12.78;2.22;;;;;;;36.98;27.36;100637.61;2061526;86;31022;-69
2022/05/20 07:10:13;;;;;;;5.67;2.80;;;;;;;37.04;27.28;100624.59;2061952;86;32923;-70
2022/05/20 07:13:16;;;;;;;3.80;2.30;;;;;;;37.09;26.80;100624.16;2061814;86;29353;-70
2022/05/20 07:16:19;;;;;;;7.15;2.22;;;;;;;37.22;26.85;100619.42;2062051;86;27700;-70
2022/05/20 07:19:21;;;;;;;;;;;;;;;37.47;26.35;100616.87;2066719;86;28674;-69
2022/05/20 07:22:24;;;;;;;4.80;2.08;;;;;;;37.66;25.86;100614.19;2067061;86;31237;-70
2022/05/20 07:25:27;;;;;;;3.10;1.82;;;;;;;37.70;25.74;100611.73;2067758;86;33000;-70
2022/05/20 07:28:32;;;;;;;4.47;2.35;;;;;;;37.66;25.68;100618.91;2067567;86;29359;-70
2022/05/20 07:31:35;;;;;;;4.42;1.80;;;;;;;37.66;25.68;100618.91;2067711;86;27646;-71
2022/05/20 07:34:37;;;;;;;2.90;2.50;;;;;;;37.62;25.15;100622.77;2067887;86;28752;-72
2022/05/20 07:37:40;;;;;;;5.22;1.80;;;;;;;37.60;24.81;100622.16;2067430;86;30991;-70
2022/05/20 07:40:45;;;;;;;5.33;2.80;;;;;;;37.60;25.13;100625.52;2067447;86;32966;-71
2022/05/20 07:43:48;;;;;;;3.87;2.65;;;;;;;37.64;24.79;100634.55;2067448;86;29359;-69
2022/05/20 07:46:50;;;;;;;7.50;2.50;;;;;;;37.69;24.53;100624.02;2067862;86;27622;-72
2022/05/20 07:49:53;;;;;;;1.87;1.70;;;;;;;37.71;24.23;100626.02;2067608;86;28668;-68
2022/05/20 07:56:22;;;;;;;6.55;2.25;;;;;;;37.40;24.46;100624.81;2059185;85;33004;-70
2022/05/20 07:59:33;;;;;;;2.98;1.87;;;;;;;37.36;24.47;100622.23;2036071;87;29374;-70
2022/05/20 08:02:35;;;;;;;5.30;2.22;;;;;;;37.47;24.50;100628.05;2037102;86;27919;-67
2022/05/20 08:05:38;;;;;;;6.90;2.50;;;;;;;37.48;24.44;100629.19;2036338;87;28811;-69
2022/05/20 08:08:41;;;;;;;7.28;2.35;;;;;;;37.45;24.58;100629.71;2036219;87;31154;-68
2022/05/20 08:11:43;;;;;;;;;;;;;;;37.50;24.38;100628.39;2038762;87;33014;-68
2022/05/20 08:14:47;;;;;;;4.12;1.85;;;;;;;37.48;24.17;100629.75;2036474;87;29333;-68
2022/05/20 08:17:51;;;;;;;6.05;2.12;;;;;;;37.32;24.35;100636.39;2036493;87;27911;-69
2022/05/20 08:20:55;;;;;;;3.62;1.70;;;;;;;37.26;24.35;100631.78;2036094;87;28691;-67
2022/05/20 08:23:58;;;;;;;5.12;2.15;;;;;;;37.32;24.57;100628.54;2059979;84;31043;-67
2022/05/20 08:27:01;;;;;;;;;;;;;;;37.28;24.53;100628.75;2040115;85;34427;-68
2022/05/20 08:30:12;;;;;;;5.83;2.12;;;;;;;37.23;24.29;100637.89;2036925;86;29426;-67
2022/05/20 08:33:15;;;;;;;2.47;1.90;;;;;;;37.03;24.26;100636.86;2035679;87;27737;-68
2022/05/20 08:36:19;;;;;;;4.55;2.25;;;;;;;36.90;24.41;100630.98;2036526;87;28641;-68
2022/05/20 08:39:21;;;;;;;;;;;;;;;36.84;24.61;100625.80;2038930;87;31021;-67
2022/05/20 08:42:28;;;;;;;2.65;2.22;;;;;;;36.77;24.49;100623.70;2035120;87;33137;-67
2022/05/20 08:45:32;;;;;;;4.70;1.77;;;;;;;36.62;24.61;100622.77;2035193;87;29329;-68
2022/05/20 08:48:35;;;;;;;8.60;2.17;;;;;;;36.54;25.07;100620.36;2035039;87;27714;-68
2022/05/20 08:51:41;;;;;;;2.67;2.27;;;;;;;36.48;24.77;100624.41;2035100;87;28667;-68
2022/05/20 08:54:44;;;;;;;2.37;1.80;;;;;;;36.29;24.82;100625.56;2036230;87;31008;-68
2022/05/20 08:57:54;;;;;;;5.17;2.22;;;;;;;36.13;25.07;100620.15;2041123;87;32959;-68
2022/05/20 09:00:59;;;;;;;7.35;2.60;;;;;;;36.04;25.35;100621.03;2043715;87;29717;-68
2022/05/20 09:04:03;;;;;;;2.12;1.92;;;;;;;35.91;25.46;100623.44;2043832;87;28034;-68
2022/05/20 09:07:12;;;;;;;4.45;2.72;;;;;;;35.82;25.44;100613.73;2019430;87;28636;-68
2022/05/20 09:10:15;;;;;;;3.85;2.22;;;;;;;35.64;25.71;100618.78;2043755;87;31060;-67
2022/05/20 09:17:05;;;;;;;3.60;2.52;;;;;;;35.39;25.97;100616.40;2042085;87;29395;-66
2022/05/20 09:20:10;;;;;;;2.83;2.15;;;;;;;35.13;26.03;100608.69;2044470;87;27679;-68
2022/05/20 09:23:15;;;;;;;3.55;2.10;;;;;;;35.03;26.34;100603.34;2019783;87;28653;-67
2022/05/20 09:26:22;;;;;;;4.37;2.25;;;;;;;34.99;26.60;100602.41;2019598;87;31049;-67
2022/05/20 09:29:37;;;;;;;6.00;2.65;;;;;;;34.91;26.69;100603.23;2044204;87;33077;-67
2022/05/20 09:32:53;;;;;;;5.95;2.83;;;;;;;34.78;26.73;100605.08;2041331;85;29346;-70
2022/05/20 09:36:00;;;;;;;4.35;2.15;;;;;;;34.60;26.91;100594.75;2039197;87;27778;-67
2022/05/20 09:39:20;;;;;;;6.00;2.25;;;;;;;34.46;26.87;100603.78;2044073;87;28660;-68
2022/05/20 09:42:29;;;;;;;3.37;2.20;;;;;;;34.27;27.03;100598.66;2019649;87;31107;-67
2022/05/20 09:45:44;;;;;;;5.97;2.12;;;;;;;34.06;27.28;100585.47;2044280;87;32975;-68
2022/05/20 09:49:00;;;;;;;4.75;2.20;;;;;;;33.84;27.46;100584.09;2061656;85;29504;-68
2022/05/20 09:52:06;;;;;;;2.67;2.47;;;;;;;33.70;27.75;100581.41;2043720;87;27650;-68
2022/05/20 09:55:17;;;;;;;2.87;2.10;;;;;;;33.53;27.99;100572.72;2062204;85;28709;-68
2022/05/20 09:58:30;;;;;;;5.72;2.90;;;;;;;33.42;28.30;100573.44;2042970;85;31049;-67
2022/05/20 10:01:33;;;;;;;4.42;2.75;;;;;;;33.43;28.43;100578.75;2028680;87;33048;-67
2022/05/20 10:04:56;;;;;;;6.37;2.50;;;;;;;33.24;28.29;100574.98;2027247;87;29332;-68
2022/05/20 10:08:21;;;;;;;2.05;1.87;;;;;;;33.00;28.57;100575.17;2023529;87;28154;-67
2022/05/20 10:11:29;;;;;;;5.28;2.40;;;;;;;32.77;28.96;100572.31;2026994;87;28674;-67
2022/05/20 10:15:20;;;;;;;3.35;2.20;;;;;;;32.75;29.13;100565.28;2026359;86;31006;-69
2022/05/20 10:18:45;;;;;;;2.83;2.15;;;;;;;32.66;29.09;100565.53;2026795;87;33008;-67
2022/05/20 10:22:41;;;;;;;4.20;2.22;;;;;;;32.51;29.48;100559.37;2046399;86;29430;-68
2022/05/20 10:26:13;;;;;;;4.67;2.45;;;;;;;32.56;29.71;100559.04;2027270;87;27717;-67
2022/05/20 10:33:09;;;;;;;5.15;3.42;;;;;;;32.69;29.80;100557.30;2026374;87;31125;-68
2022/05/20 10:36:22;;;;;;;4.30;2.17;;;;;;;32.77;29.91;100555.66;2025976;87;33005;-68
2022/05/20 10:39:42;;;;;;;9.60;2.50;;;;;;;32.86;29.77;100552.16;2026664;87;29437;-69
2022/05/20 10:43:23;;;;;;;5.60;2.33;;;;;;;32.94;29.88;100545.51;2025812;86;27588;-69
2022/05/20 10:50:03;;;;;;;3.55;2.00;;;;;;;32.86;29.73;100543.83;2009132;87;31041;-69
2022/05/20 10:53:45;;;;;;;4.92;2.25;;;;;;;32.92;29.84;100540.73;2026816;87;33003;-68
2022/05/20 10:57:24;;;;;;;3.02;2.33;;;;;;;33.00;29.69;100541.87;2026204;86;29342;-69
2022/05/20 11:00:50;;;;;;;2.50;2.08;;;;;;;32.95;29.72;100534.72;2033162;86;27761;-68
2022/05/20 11:04:01;;;;;;;3.67;2.40;;;;;;;33.02;30.07;100541.12;2043059;86;28758;-68
2022/05/20 11:07:24;;;;;;;3.83;2.45;;;;;;;33.04;29.97;100534.81;2043627;87;31121;-68
2022/05/20 11:10:59;;;;;;;9.80;2.75;;;;;;;32.99;29.75;100531.31;2043127;86;33070;-68
2022/05/20 11:14:29;;;;;;;5.95;2.40;;;;;;;32.97;30.04;100529.30;2043458;87;29424;-68
2022/05/20 11:17:59;;;;;;;3.92;2.22;;;;;;;32.93;29.84;100530.80;2044233;87;27702;-68
2022/05/20 11:21:29;;;;;;;3.20;2.15;;;;;;;32.90;29.99;100531.78;2043969;87;28663;-67
2022/05/20 11:24:49;;;;;;;6.15;2.30;;;;;;;32.82;30.12;100520.38;2043865;86;31078;-67
2022/05/20 11:28:15;;;;;;;2.75;2.08;;;;;;;32.79;30.11;100531.33;2043939;87;33084;-69
2022/05/20 11:31:55;;;;;;;3.90;2.35;;;;;;;32.71;30.19;100519.09;2043559;87;29227;-69
2022/05/20 11:35:27;;;;;;;3.40;2.30;;;;;;;32.68;30.31;100525.08;2043979;87;27728;-69
2022/05/20 11:38:44;;;;;;;3.70;2.50;;;;;;;32.65;30.36;100525.50;2044254;87;28651;-70
2022/05/20 11:42:10;;;;;;;5.55;2.20;;;;;;;32.61;30.33;100520.06;2044240;87;31027;-68
2022/05/20 11:45:35;;;;;;;4.97;2.22;;;;;;;32.59;30.53;100523.06;2044223;86;32974;-69
2022/05/20 11:49:01;;;;;;;3.50;2.10;;;;;;;32.58;30.30;100514.43;2044261;87;29396;-68
2022/05/20 11:52:18;;;;;;;3.20;2.00;;;;;;;32.58;30.64;100509.75;2043883;87;27723;-70
2022/05/20 11:55:33;;;;;;;3.33;2.12;;;;;;;32.58;30.39;100505.59;2036470;87;28688;-68
2022/05/20 11:58:44;;;;;;;4.05;2.17;;;;;;;32.58;30.54;100501.43;2050685;86;31225;-68
2022/05/20 12:01:49;;;;;;;7.65;2.42;;;;;;;32.66;30.44;100503.11;2057387;85;32822;-68
2022/05/20 12:04:52;;;;;;;6.20;2.50;;;;;;;32.73;30.41;100501.70;2083228;84;29348;-68
2022/05/20 12:07:56;;;;;;;5.55;2.52;;;;;;;32.77;30.43;100497.39;2060108;86;27675;-67
2022/05/20 12:10:58;;;;;;;;;;;;;;;32.71;30.32;100489.97;2062444;86;28693;-68
2022/05/20 12:14:06;;;;;;;3.08;2.00;;;;;;;32.64;30.17;100495.54;2037661;86;31209;-68
2022/05/20 12:17:10;;;;;;;4.95;2.05;;;;;;;32.47;30.28;100486.82;2060154;86;33035;-68
2022/05/20 12:24:15;;;;;;;7.08;2.25;;;;;;;32.30;30.68;100479.52;2059975;86;27993;-69
2022/05/20 12:27:28;;;;;;;3.55;1.80;;;;;;;32.28;30.63;100472.78;2059800;86;28711;-68
2022/05/20 12:30:45;;;;;;;6.87;2.00;;;;;;;32.30;30.83;100473.97;2060225;86;31033;-68
2022/05/20 12:34:10;;;;;;;4.12;2.00;;;;;;;32.27;30.79;100474.39;2066505;85;33050;-67
2022/05/20 12:37:45;;;;;;;8.30;1.92;;;;;;;32.20;30.72;100463.28;2064101;85;29336;-69
2022/05/20 12:40:53;;;;;;;3.62;2.12;;;;;;;32.27;30.84;100462.75;1982791;88;27954;-69
2022/05/20 12:44:01;;;;;;;5.83;3.60;;;;;;;32.29;30.81;100458.40;1963245;90;28728;-68
2022/05/20 12:47:29;;;;;;;2.10;1.90;;;;;;;32.33;30.75;100451.88;1942580;90;31053;-68
2022/05/20 12:50:31;;;;;;;3.25;2.12;;;;;;;32.34;30.72;100448.91;1963050;90;33128;-68
2022/05/20 12:53:38;;;;;;;4.55;2.27;;;;;;;32.32;30.82;100444.11;1962777;90;29334;-67
2022/05/20 12:56:42;;;;;;;2.30;2.10;;;;;;;32.29;30.81;100436.22;1962375;89;28011;-67
2022/05/20 12:59:58;;;;;;;3.05;2.22;;;;;;;32.27;30.84;100432.26;1963194;90;28663;-73
2022/05/20 13:03:09;;;;;;;4.15;2.70;;;;;;;32.30;30.94;100432.38;1962621;90;31168;-65
2022/05/20 13:06:25;;;;;;;2.55;2.20;;;;;;;32.33;30.93;100431.08;1942114;90;32986;-66
2022/05/20 13:09:41;;;;;;;3.72;2.00;;;;;;;32.32;30.84;100423.83;1962161;90;29420;-67
2022/05/20 13:12:52;;;;;;;2.77;1.95;;;;;;;32.35;30.92;100416.47;2055077;86;27965;-70
2022/05/20 13:16:03;;;;;;;3.42;2.30;;;;;;;32.37;30.92;100421.27;2004869;87;30364;-67
2022/05/20 13:19:29;;;;;;;3.47;2.30;;;;;;;32.40;30.80;100413.36;2023930;87;31059;-69
2022/05/20 13:22:35;;;;;;;6.47;2.35;;;;;;;32.36;31.08;100390.45;1975109;88;30403;-67
2022/05/20 13:25:45;;;;;;;7.90;2.35;;;;;;;32.58;31.07;100402.09;1906059;92;29334;-70
2022/05/20 13:28:47;;;;;;;5.92;2.20;;;;;;;32.70;30.88;100393.39;1927174;92;27923;-69
2022/05/20 13:32:30;;;;;;;;;;;;;;;;;;;;;
2022/05/20 13:40:28;;;;;;;2.62;2.15;;;;;;;32.48;30.91;100385.08;1926264;92;32997;-68
2022/05/20 13:43:35;;;;;;;3.55;1.75;;;;;;;32.25;30.92;100374.78;1924922;92;29379;-67
2022/05/20 13:50:16;;;;;;;4.05;2.20;;;;;;;31.81;30.93;100366.14;1931875;91;28055;-69
2022/05/20 13:53:19;;;;;;;2.35;1.82;;;;;;;31.56;31.12;100360.90;1913699;91;32533;-67
2022/05/20 13:56:46;;;;;;;6.50;2.30;;;;;;;31.36;31.30;100353.44;1934859;91;32994;-69
2022/05/20 13:59:57;;;;;;;3.50;2.12;;;;;;;31.19;31.52;100347.48;1916133;91;29445;-68
2022/05/20 14:03:21;;;;;;;4.53;1.98;;;;;;;30.99;31.76;100342.73;1965414;90;28248;-67
2022/05/20 14:06:27;;;;;;;16.30;2.30;;;;;;;30.78;32.09;100329.09;1943216;90;28551;-67
2022/05/20 14:09:31;;;;;;;7.30;2.33;;;;;;;30.74;32.44;100330.89;1965255;90;31209;-68
2022/05/20 14:12:38;;;;;;;8.88;2.67;;;;;;;30.64;32.43;100326.27;1964874;90;32984;-68
2022/05/20 14:15:52;;;;;;;2.30;2.10;;;;;;;30.45;32.62;100308.00;1963003;90;29344;-70
2022/05/20 14:19:06;;;;;;;5.10;2.72;;;;;;;30.42;32.64;100318.11;1963441;90;28199;-73
2022/05/20 14:22:19;;;;;;;5.47;2.10;;;;;;;30.35;32.90;100318.60;1962761;90;27852;-69
2022/05/20 14:25:31;;;;;;;4.78;3.20;;;;;;;30.26;33.02;100317.09;1931011;91;31043;-68
2022/05/20 14:28:50;;;;;;;2.50;2.30;;;;;;;30.20;33.35;100310.45;1967488;88;33384;-70
2022/05/20 14:31:57;;;;;;;;;;;;;;;30.00;33.25;100294.66;2051981;86;27717;-68
2022/05/20 14:35:00;;;;;;;7.53;2.90;;;;;;;30.00;33.61;100307.09;2070900;85;27839;-67
2022/05/20 14:38:10;;;;;;;11.20;3.83;;;;;;;29.92;33.66;100300.30;2052039;86;28571;-69
2022/05/20 14:41:29;;;;;;;5.78;2.58;;;;;;;29.89;33.85;100303.47;2063289;85;28180;-68
2022/05/20 14:44:34;;;;;;;11.95;3.25;;;;;;;29.87;34.02;100293.14;2051699;86;30654;-69
2022/05/20 14:47:41;;;;;;;4.47;2.22;;;;;;;29.83;34.11;100281.66;2052816;83;29324;-72
2022/05/20 14:50:48;;;;;;;3.15;2.08;;;;;;;29.82;34.25;100279.12;2064807;86;27772;-73
2022/05/20 14:53:53;;;;;;;2.33;2.12;;;;;;;29.79;34.24;100273.45;2063766;86;28614;-70
2022/05/20 14:56:58;;;;;;;7.22;2.72;;;;;;;29.76;34.38;100272.50;2041583;86;31137;-66
2022/05/20 15:00:28;;;;;;;10.18;3.95;;;;;;;29.72;34.43;100273.96;2034480;86;30500;-66
2022/05/20 15:03:41;;;;;;;17.55;3.80;;;;;;;29.61;34.58;100260.19;2062638;86;29320;-66
2022/05/20 15:06:47;;;;;;;;;;;;;;;29.57;34.71;100254.75;2063974;86;28053;-66
2022/05/20 15:09:55;;;;;;;21.97;3.10;;;;;;;29.51;34.79;100244.53;2063547;86;28736;-69
2022/05/20 15:13:02;;;;;;;4.12;2.10;;;;;;;29.42;34.92;100241.08;2038771;86;28531;-65
2022/05/20 15:16:07;;;;;;;6.65;3.85;;;;;;;29.36;35.14;100238.60;2061969;86;33029;-65
2022/05/20 15:19:13;;;;;;;2.83;2.30;;;;;;;29.32;35.24;100226.22;2061378;86;29322;-65
2022/05/20 15:22:24;;;;;;;2.75;2.42;;;;;;;29.26;35.46;100233.41;2059841;86;28091;-64